Time;durP1;ratioP1;P1;durP2;ratioP2;P2;SDS_P1;SDS_P2;PMS_P1;PMS_P2;Temp;Humidity;BMP_temperature;BMP_pressure;BME280_temperature;BME280_humidity;BME280_pressure;Samples;Min_cycle;Max_cycle;Signal;HPM_P1;HPM_P2
2023/07/12 00:00:54;;;;;;;10.75;4.88;;;;;;;;;;4968178;28;20047;-64
2023/07/12 00:03:20;;;;;;;9.48;4.07;;;;;;;;;;4968283;28;20039;-65
2023/07/12 00:05:47;;;;;;;11.48;5.43;;;;;;;;;;4971287;28;20614;-64
2023/07/12 00:08:22;;;;;;;7.80;4.50;;;;;;;;;;4970852;28;20046;-64
2023/07/12 00:10:50;;;;;;;11.77;4.88;;;;;;;;;;4972787;28;20073;-64
2023/07/12 00:13:17;;;;;;;9.55;3.85;;;;;;;;;;4970481;28;20046;-64
2023/07/12 00:15:45;;;;;;;10.15;3.60;;;;;;;;;;4972408;28;20052;-64
2023/07/12 00:18:25;;;;;;;5.93;3.80;;;;;;;;;;4971702;28;20105;-64
2023/07/12 00:20:52;;;;;;;6.07;3.08;;;;;;;;;;4972455;28;20055;-64
2023/07/12 00:23:19;;;;;;;4.85;2.95;;;;;;;;;;4971942;28;20047;-64
2023/07/12 00:25:47;;;;;;;11.90;4.20;;;;;;;;;;4970442;28;20133;-64
2023/07/12 00:28:25;;;;;;;9.30;4.35;;;;;;;;;;4970142;28;20039;-65
2023/07/12 00:30:52;;;;;;;17.52;5.63;;;;;;;;;;4970734;28;20053;-64
2023/07/12 00:33:19;;;;;;;16.42;6.13;;;;;;;;;;4970208;28;20536;-64
2023/07/12 00:35:45;;;;;;;21.73;6.97;;;;;;;;;;4972259;28;20047;-65
2023/07/12 00:38:28;;;;;;;12.98;4.95;;;;;;;;;;4970327;28;20367;-63
2023/07/12 00:41:03;;;;;;;8.27;4.82;;;;;;;;;;4971846;28;20047;-65
2023/07/12 00:43:48;;;;;;;6.95;4.45;;;;;;;;;;4971367;28;20398;-64
2023/07/12 00:46:32;;;;;;;14.05;4.70;;;;;;;;;;4969876;28;20193;-64
2023/07/12 00:48:58;;;;;;;7.35;4.10;;;;;;;;;;4971426;28;20497;-64
2023/07/12 00:51:59;;;;;;;6.60;3.55;;;;;;;;;;4971400;28;20074;-63
2023/07/12 00:54:46;;;;;;;10.35;4.50;;;;;;;;;;4954402;28;20122;-63
2023/07/12 00:57:11;;;;;;;12.05;5.00;;;;;;;;;;4956047;28;20522;-65
2023/07/12 00:59:37;;;;;;;9.02;4.70;;;;;;;;;;4971505;28;20046;-63
2023/07/12 01:02:03;;;;;;;8.27;4.55;;;;;;;;;;4981007;28;20054;-65
2023/07/12 01:04:34;;;;;;;10.52;3.83;;;;;;;;;;4967279;28;20057;-63
2023/07/12 01:07:00;;;;;;;8.80;3.90;;;;;;;;;;4971392;28;20497;-66
2023/07/12 01:09:27;;;;;;;4.15;2.67;;;;;;;;;;4970823;28;20034;-64
2023/07/12 01:11:54;;;;;;;4.70;2.60;;;;;;;;;;4969925;28;20084;-64
2023/07/12 01:14:20;;;;;;;11.85;5.05;;;;;;;;;;4969368;28;20043;-63
2023/07/12 01:16:57;;;;;;;7.68;4.07;;;;;;;;;;4970465;28;20080;-64
2023/07/12 01:19:22;;;;;;;9.70;4.07;;;;;;;;;;4970657;28;20042;-63
2023/07/12 01:21:51;;;;;;;6.22;3.17;;;;;;;;;;4971450;28;20043;-64
2023/07/12 01:24:18;;;;;;;4.65;3.05;;;;;;;;;;4969325;28;20047;-64
2023/07/12 01:26:48;;;;;;;6.05;3.33;;;;;;;;;;4970776;28;20043;-65
2023/07/12 01:29:14;;;;;;;5.75;3.17;;;;;;;;;;4970605;28;20058;-64
2023/07/12 01:31:41;;;;;;;6.72;3.67;;;;;;;;;;4970871;28;20039;-64
2023/07/12 01:34:08;;;;;;;5.90;2.85;;;;;;;;;;4968759;28;20054;-64
2023/07/12 01:36:34;;;;;;;9.05;3.65;;;;;;;;;;4970976;28;20114;-64
2023/07/12 01:39:03;;;;;;;8.50;3.78;;;;;;;;;;4969189;28;20047;-65
2023/07/12 01:41:28;;;;;;;15.27;4.65;;;;;;;;;;4968976;28;20035;-64
2023/07/12 01:43:54;;;;;;;8.70;4.50;;;;;;;;;;4970671;28;20046;-64
2023/07/12 01:46:20;;;;;;;15.57;5.82;;;;;;;;;;4968828;28;20050;-64
2023/07/12 01:48:46;;;;;;;11.70;5.25;;;;;;;;;;4970818;28;20066;-64
2023/07/12 01:51:13;;;;;;;12.05;5.10;;;;;;;;;;4968987;28;20189;-64
2023/07/12 01:53:39;;;;;;;10.18;4.78;;;;;;;;;;4970958;28;20058;-63
2023/07/12 01:56:05;;;;;;;11.25;3.33;;;;;;;;;;4970304;28;20047;-64
2023/07/12 01:58:31;;;;;;;7.72;3.83;;;;;;;;;;4970644;28;20043;-63
2023/07/12 02:00:58;;;;;;;6.38;3.17;;;;;;;;;;4970837;28;20375;-65
2023/07/12 02:03:24;;;;;;;6.07;3.13;;;;;;;;;;4968378;28;20031;-64
2023/07/12 02:05:50;;;;;;;7.55;3.22;;;;;;;;;;4970497;28;20050;-64
2023/07/12 02:08:15;;;;;;;7.85;3.00;;;;;;;;;;4968716;28;20046;-63
2023/07/12 02:10:41;;;;;;;11.48;3.15;;;;;;;;;;4970229;28;20045;-64
2023/07/12 02:13:07;;;;;;;9.45;3.38;;;;;;;;;;4968726;28;20054;-64
2023/07/12 02:15:32;;;;;;;7.35;3.80;;;;;;;;;;4969947;28;20505;-64
2023/07/12 02:18:00;;;;;;;9.15;3.72;;;;;;;;;;4969992;28;20111;-64
2023/07/12 02:20:25;;;;;;;9.30;3.20;;;;;;;;;;4970025;28;20117;-63
2023/07/12 02:22:51;;;;;;;5.40;2.95;;;;;;;;;;4969929;28;20755;-65
2023/07/12 02:25:18;;;;;;;7.03;3.33;;;;;;;;;;4969860;28;20038;-64
2023/07/12 02:27:44;;;;;;;5.13;2.90;;;;;;;;;;4969349;28;20097;-64
2023/07/12 02:30:17;;;;;;;6.10;2.85;;;;;;;;;;4969566;28;20047;-64
2023/07/12 02:32:44;;;;;;;4.95;2.88;;;;;;;;;;4968424;28;20517;-65
2023/07/12 02:35:09;;;;;;;4.47;2.78;;;;;;;;;;4967729;28;20050;-64
2023/07/12 02:37:36;;;;;;;5.30;2.80;;;;;;;;;;4969496;28;20137;-63
2023/07/12 02:40:04;;;;;;;3.83;2.92;;;;;;;;;;4968585;28;20039;-64
2023/07/12 02:42:30;;;;;;;3.75;2.80;;;;;;;;;;4961996;28;20043;-64
2023/07/12 02:44:55;;;;;;;5.40;2.67;;;;;;;;;;4969499;28;20051;-64
2023/07/12 02:47:21;;;;;;;5.07;2.72;;;;;;;;;;4967794;28;20047;-64
2023/07/12 02:49:46;;;;;;;6.15;3.20;;;;;;;;;;4969562;28;20065;-64
2023/07/12 02:52:12;;;;;;;5.53;2.83;;;;;;;;;;4968959;28;20046;-64
2023/07/12 02:54:37;;;;;;;5.75;3.35;;;;;;;;;;4969647;28;20118;-63
2023/07/12 02:57:03;;;;;;;7.97;3.38;;;;;;;;;;4968945;28;20039;-64
2023/07/12 02:59:30;;;;;;;8.10;3.53;;;;;;;;;;4969342;28;20050;-64
2023/07/12 03:01:56;;;;;;;7.53;3.55;;;;;;;;;;4991970;28;20493;-67
2023/07/12 03:04:22;;;;;;;6.22;3.05;;;;;;;;;;4983419;28;20044;-65
2023/07/12 03:06:48;;;;;;;8.98;3.53;;;;;;;;;;4988798;28;20070;-65
2023/07/12 03:09:13;;;;;;;7.13;3.40;;;;;;;;;;4971795;28;20169;-64
2023/07/12 03:11:39;;;;;;;5.72;3.38;;;;;;;;;;4967749;28;20050;-64
2023/07/12 03:14:06;;;;;;;4.80;2.83;;;;;;;;;;4967879;28;20045;-65
2023/07/12 03:16:32;;;;;;;14.32;2.97;;;;;;;;;;4968041;28;20039;-64
2023/07/12 03:19:00;;;;;;;4.53;2.78;;;;;;;;;;4969428;28;20050;-65
2023/07/12 03:21:25;;;;;;;4.47;2.95;;;;;;;;;;4967027;28;20561;-65
2023/07/12 03:23:51;;;;;;;4.65;2.45;;;;;;;;;;4969249;28;20043;-65
2023/07/12 03:26:16;;;;;;;4.00;2.75;;;;;;;;;;4968411;28;20628;-64
2023/07/12 03:28:42;;;;;;;4.78;3.05;;;;;;;;;;4967309;28;20094;-64
2023/07/12 03:31:12;;;;;;;5.13;2.65;;;;;;;;;;4967694;28;20417;-66
2023/07/12 03:33:37;;;;;;;3.53;2.45;;;;;;;;;;4967575;28;20046;-64
2023/07/12 03:36:04;;;;;;;5.10;2.50;;;;;;;;;;4968831;28;20039;-64
2023/07/12 03:38:30;;;;;;;5.15;2.95;;;;;;;;;;4968998;28;20130;-63
2023/07/12 03:41:01;;;;;;;3.53;2.28;;;;;;;;;;4969215;28;20050;-65
2023/07/12 03:43:26;;;;;;;4.25;2.03;;;;;;;;;;4968464;28;20043;-64
2023/07/12 03:45:53;;;;;;;2.83;2.25;;;;;;;;;;4969165;28;20133;-64
2023/07/12 03:48:20;;;;;;;5.25;2.58;;;;;;;;;;4966964;28;20043;-64
2023/07/12 03:50:47;;;;;;;4.53;2.85;;;;;;;;;;4967581;28;20860;-64
2023/07/12 03:53:14;;;;;;;4.03;2.58;;;;;;;;;;4967089;28;20576;-65
2023/07/12 03:55:42;;;;;;;5.03;3.13;;;;;;;;;;4968500;28;20050;-64
2023/07/12 03:58:10;;;;;;;4.68;2.30;;;;;;;;;;4968276;28;20416;-64
2023/07/12 04:00:39;;;;;;;3.83;2.40;;;;;;;;;;4968955;28;20066;-66
2023/07/12 04:03:05;;;;;;;4.28;2.30;;;;;;;;;;4968111;28;20045;-64
2023/07/12 04:05:35;;;;;;;4.80;2.58;;;;;;;;;;4968635;28;20043;-63
2023/07/12 04:08:00;;;;;;;4.95;2.83;;;;;;;;;;4968698;28;20039;-64
2023/07/12 04:10:25;;;;;;;5.15;2.45;;;;;;;;;;4966877;28;20049;-64
2023/07/12 04:12:51;;;;;;;3.95;2.28;;;;;;;;;;4969036;28;20046;-65
2023/07/12 04:15:16;;;;;;;4.13;2.40;;;;;;;;;;4968172;28;20050;-63
2023/07/12 04:17:42;;;;;;;5.95;2.55;;;;;;;;;;4967296;28;20059;-63
2023/07/12 04:20:08;;;;;;;5.90;2.60;;;;;;;;;;4968357;28;20486;-64
2023/07/12 04:22:33;;;;;;;3.08;2.17;;;;;;;;;;4968686;28;20027;-63
2023/07/12 04:24:59;;;;;;;3.78;2.25;;;;;;;;;;4967101;28;20046;-65
2023/07/12 04:27:24;;;;;;;3.60;2.05;;;;;;;;;;4968094;28;20093;-64
2023/07/12 04:29:50;;;;;;;3.83;1.80;;;;;;;;;;4968661;28;20131;-64
2023/07/12 04:32:15;;;;;;;4.18;2.00;;;;;;;;;;4967767;28;20042;-64
2023/07/12 04:34:40;;;;;;;3.80;1.88;;;;;;;;;;4968556;28;20453;-64
2023/07/12 04:37:06;;;;;;;3.80;1.92;;;;;;;;;;4968139;28;20045;-65
2023/07/12 04:39:32;;;;;;;4.65;2.38;;;;;;;;;;4968253;28;20039;-65
2023/07/12 04:41:58;;;;;;;3.15;2.20;;;;;;;;;;4968504;28;20039;-64
2023/07/12 04:44:25;;;;;;;4.10;1.85;;;;;;;;;;4966558;28;20409;-63
2023/07/12 04:46:51;;;;;;;2.50;1.90;;;;;;;;;;4968514;28;20464;-64
2023/07/12 04:49:16;;;;;;;4.55;2.65;;;;;;;;;;4967940;28;20046;-64
2023/07/12 04:51:42;;;;;;;3.67;1.80;;;;;;;;;;4970845;28;20050;-64
2023/07/12 04:54:07;;;;;;;5.95;2.30;;;;;;;;;;4971271;28;20043;-64
2023/07/12 04:56:33;;;;;;;4.10;1.80;;;;;;;;;;4971980;28;20046;-64
2023/07/12 04:58:58;;;;;;;4.05;2.13;;;;;;;;;;4971561;28;20042;-64
2023/07/12 05:01:24;;;;;;;3.60;1.90;;;;;;;;;;4971372;28;20046;-64
2023/07/12 05:03:49;;;;;;;2.78;1.65;;;;;;;;;;4971740;28;20039;-64
2023/07/12 05:06:14;;;;;;;5.38;3.05;;;;;;;;;;4969396;28;20039;-64
2023/07/12 05:08:40;;;;;;;2.72;1.90;;;;;;;;;;4970104;28;20039;-64
2023/07/12 05:11:06;;;;;;;5.25;2.40;;;;;;;;;;4970933;28;20043;-64
2023/07/12 05:13:33;;;;;;;3.28;1.95;;;;;;;;;;4971502;28;20035;-64
2023/07/12 05:15:59;;;;;;;7.60;2.00;;;;;;;;;;4969865;28;20421;-65
2023/07/12 05:18:25;;;;;;;3.28;1.88;;;;;;;;;;4971394;28;20489;-64
2023/07/12 05:20:52;;;;;;;2.20;1.70;;;;;;;;;;4969941;28;20053;-64
2023/07/12 05:23:21;;;;;;;2.85;1.80;;;;;;;;;;4985529;28;20588;-65
2023/07/12 05:25:51;;;;;;;6.65;2.60;;;;;;;;;;4970127;28;20039;-64
2023/07/12 05:28:17;;;;;;;2.55;1.63;;;;;;;;;;4970984;28;20047;-63
2023/07/12 05:30:43;;;;;;;4.13;1.65;;;;;;;;;;4969858;28;20046;-64
2023/07/12 05:33:08;;;;;;;3.28;1.58;;;;;;;;;;4970852;28;20166;-64
2023/07/12 05:35:34;;;;;;;4.63;2.30;;;;;;;;;;4971133;28;20074;-65
2023/07/12 05:37:59;;;;;;;3.20;2.03;;;;;;;;;;4971211;28;20061;-65
2023/07/12 05:40:25;;;;;;;5.03;2.03;;;;;;;;;;4970674;28;20042;-64
2023/07/12 05:42:51;;;;;;;2.63;1.60;;;;;;;;;;4970935;28;20050;-64
2023/07/12 05:45:17;;;;;;;4.03;1.67;;;;;;;;;;4969085;28;20063;-64
2023/07/12 05:47:45;;;;;;;4.13;1.63;;;;;;;;;;4971100;28;20054;-64
2023/07/12 05:50:13;;;;;;;2.78;1.38;;;;;;;;;;4968942;28;20131;-64
2023/07/12 05:52:38;;;;;;;4.18;1.65;;;;;;;;;;4969241;28;20823;-64
2023/07/12 05:55:07;;;;;;;3.05;2.00;;;;;;;;;;4970678;28;20051;-64
2023/07/12 05:57:33;;;;;;;4.10;2.13;;;;;;;;;;4970916;28;20557;-64
2023/07/12 06:00:00;;;;;;;2.85;1.85;;;;;;;;;;4971027;28;20054;-65
2023/07/12 06:02:25;;;;;;;4.97;2.15;;;;;;;;;;4970297;28;20035;-65
2023/07/12 06:04:51;;;;;;;5.57;2.20;;;;;;;;;;4970407;28;20678;-64
2023/07/12 06:07:16;;;;;;;4.10;1.80;;;;;;;;;;4970004;28;20046;-63
2023/07/12 06:09:42;;;;;;;3.30;1.95;;;;;;;;;;4968982;28;20405;-64
2023/07/12 06:12:08;;;;;;;4.07;1.88;;;;;;;;;;4969801;28;20513;-64
2023/07/12 06:14:33;;;;;;;6.13;1.92;;;;;;;;;;4969166;28;20050;-63
2023/07/12 06:16:59;;;;;;;4.18;1.83;;;;;;;;;;4970624;28;20047;-64
2023/07/12 06:19:24;;;;;;;3.10;2.10;;;;;;;;;;4969828;28;20051;-64
2023/07/12 06:21:50;;;;;;;7.03;2.38;;;;;;;;;;4969029;28;20057;-65
2023/07/12 06:24:15;;;;;;;4.05;2.10;;;;;;;;;;4968263;28;20047;-63
2023/07/12 06:26:41;;;;;;;8.13;1.95;;;;;;;;;;4970488;28;20053;-65
2023/07/12 06:29:06;;;;;;;3.50;2.08;;;;;;;;;;4969540;28;20042;-64
2023/07/12 06:31:32;;;;;;;3.67;1.92;;;;;;;;;;4970262;28;20042;-64
2023/07/12 06:34:02;;;;;;;4.95;2.13;;;;;;;;;;4970071;28;20039;-66
2023/07/12 06:36:27;;;;;;;3.17;2.25;;;;;;;;;;4969969;28;20043;-64
2023/07/12 06:38:53;;;;;;;4.13;2.40;;;;;;;;;;4970053;28;20054;-63
2023/07/12 06:41:19;;;;;;;4.07;1.92;;;;;;;;;;4968101;28;20141;-64
2023/07/12 06:43:45;;;;;;;2.85;1.83;;;;;;;;;;4968422;28;20509;-64
2023/07/12 06:46:10;;;;;;;3.50;2.00;;;;;;;;;;4969794;28;20816;-64
2023/07/12 06:48:35;;;;;;;6.70;2.50;;;;;;;;;;4969921;28;20031;-64
2023/07/12 06:51:02;;;;;;;7.00;2.33;;;;;;;;;;4968308;28;20051;-64
2023/07/12 06:53:27;;;;;;;4.00;2.50;;;;;;;;;;4967948;28;20027;-64
2023/07/12 06:55:54;;;;;;;5.80;2.55;;;;;;;;;;4969768;28;20421;-65
2023/07/12 06:58:20;;;;;;;7.00;2.58;;;;;;;;;;4968923;28;20039;-64
2023/07/12 07:00:46;;;;;;;4.78;2.63;;;;;;;;;;4969781;28;20061;-65
2023/07/12 07:03:13;;;;;;;4.95;3.05;;;;;;;;;;4968902;28;20046;-65
2023/07/12 07:05:44;;;;;;;4.00;2.15;;;;;;;;;;4968038;28;20498;-64
2023/07/12 07:08:16;;;;;;;7.82;2.97;;;;;;;;;;4967802;28;20053;-65
2023/07/12 07:10:44;;;;;;;6.72;2.72;;;;;;;;;;4967957;28;20393;-65
2023/07/12 07:13:10;;;;;;;7.13;3.08;;;;;;;;;;4968185;28;20141;-64
2023/07/12 07:15:36;;;;;;;7.28;2.90;;;;;;;;;;4969416;28;20126;-64
2023/07/12 07:18:01;;;;;;;12.50;4.43;;;;;;;;;;4969537;28;20051;-65
2023/07/12 07:20:27;;;;;;;13.18;3.63;;;;;;;;;;4968647;28;20081;-64
2023/07/12 07:22:53;;;;;;;6.90;3.33;;;;;;;;;;4969318;28;20144;-64
2023/07/12 07:25:19;;;;;;;7.65;3.10;;;;;;;;;;4968928;28;20089;-64
2023/07/12 07:27:44;;;;;;;6.53;3.33;;;;;;;;;;4967930;28;20092;-64
2023/07/12 07:30:12;;;;;;;6.65;3.70;;;;;;;;;;4968726;28;20046;-64
2023/07/12 07:32:38;;;;;;;9.20;3.50;;;;;;;;;;4967592;28;20077;-64
2023/07/12 07:35:04;;;;;;;9.70;3.50;;;;;;;;;;4968431;28;20310;-65
2023/07/12 07:37:30;;;;;;;5.38;3.17;;;;;;;;;;4969055;28;20533;-65
2023/07/12 07:39:55;;;;;;;5.55;3.28;;;;;;;;;;4967475;28;20035;-64
2023/07/12 07:42:21;;;;;;;5.00;3.22;;;;;;;;;;4967117;28;20445;-65
2023/07/12 07:44:46;;;;;;;7.60;4.03;;;;;;;;;;4968580;28;20113;-64
2023/07/12 07:47:12;;;;;;;7.45;3.88;;;;;;;;;;4968215;28;20486;-64
2023/07/12 07:49:37;;;;;;;7.93;4.13;;;;;;;;;;4969253;28;20090;-65
2023/07/12 07:52:04;;;;;;;4.65;3.13;;;;;;;;;;4967292;28;20089;-65
2023/07/12 07:54:29;;;;;;;5.32;3.10;;;;;;;;;;4968984;28;20035;-64
2023/07/12 07:56:55;;;;;;;6.65;3.10;;;;;;;;;;4968990;28;20039;-64
2023/07/12 07:59:21;;;;;;;5.70;3.17;;;;;;;;;;4968252;28;20039;-64
2023/07/12 08:01:46;;;;;;;5.85;3.75;;;;;;;;;;4968906;28;20059;-64
2023/07/12 08:04:12;;;;;;;6.05;3.25;;;;;;;;;;4968323;28;20059;-65
2023/07/12 08:06:38;;;;;;;4.72;3.30;;;;;;;;;;4968852;28;20061;-64
2023/07/12 08:09:06;;;;;;;5.75;3.30;;;;;;;;;;4968398;28;20046;-65
2023/07/12 08:11:31;;;;;;;4.93;3.13;;;;;;;;;;4967232;28;20385;-64
2023/07/12 08:13:57;;;;;;;5.22;3.63;;;;;;;;;;4968534;28;20047;-64
2023/07/12 08:16:26;;;;;;;7.13;4.03;;;;;;;;;;4968297;28;20117;-64
2023/07/12 08:18:53;;;;;;;7.55;4.03;;;;;;;;;;4968676;28;20557;-64
2023/07/12 08:21:18;;;;;;;7.55;3.75;;;;;;;;;;4968151;28;20446;-64
2023/07/12 08:23:44;;;;;;;5.65;3.70;;;;;;;;;;4967044;28;20042;-64
2023/07/12 08:26:09;;;;;;;6.25;3.78;;;;;;;;;;4969703;28;20085;-65
2023/07/12 08:28:35;;;;;;;12.10;4.57;;;;;;;;;;4972460;28;20097;-65
2023/07/12 08:31:00;;;;;;;7.78;4.30;;;;;;;;;;4972188;28;20418;-65
2023/07/12 08:33:25;;;;;;;5.40;3.42;;;;;;;;;;4971775;28;20038;-65
2023/07/12 08:35:51;;;;;;;7.38;3.40;;;;;;;;;;4971072;28;20047;-65
2023/07/12 08:38:18;;;;;;;9.77;4.18;;;;;;;;;;4971591;28;20039;-64
2023/07/12 08:40:48;;;;;;;4.68;3.50;;;;;;;;;;4970769;28;20101;-64
2023/07/12 08:43:21;;;;;;;6.38;3.90;;;;;;;;;;4970235;28;20078;-64
2023/07/12 08:45:49;;;;;;;5.15;3.72;;;;;;;;;;4970696;28;20069;-65
2023/07/12 08:48:20;;;;;;;7.78;3.85;;;;;;;;;;4969916;28;20167;-65
2023/07/12 08:50:47;;;;;;;7.93;3.53;;;;;;;;;;4972156;28;20047;-64
2023/07/12 08:53:29;;;;;;;7.75;3.92;;;;;;;;;;4969943;28;20324;-65
2023/07/12 08:55:57;;;;;;;11.07;4.25;;;;;;;;;;4970461;28;20046;-65
2023/07/12 08:58:31;;;;;;;11.73;3.72;;;;;;;;;;4969276;28;20038;-64
2023/07/12 09:01:19;;;;;;;8.30;3.35;;;;;;;;;;4971675;28;20150;-64
2023/07/12 09:03:44;;;;;;;7.25;3.90;;;;;;;;;;4971202;28;20134;-64
2023/07/12 09:06:13;;;;;;;7.30;3.45;;;;;;;;;;4969475;28;20141;-65
2023/07/12 09:08:41;;;;;;;;;;;;;;;;;;4971805;28;20043;-64
2023/07/12 09:11:17;;;;;;;6.45;3.83;;;;;;;;;;4969929;28;20368;-64
2023/07/12 09:13:46;;;;;;;5.53;3.75;;;;;;;;;;4969909;28;20039;-65
2023/07/12 09:16:38;;;;;;;;;;;;;;;;;;4971200;28;20492;-65
2023/07/12 09:19:23;;;;;;;9.02;3.58;;;;;;;;;;4969344;28;19922;-64
2023/07/12 09:21:54;;;;;;;5.60;4.10;;;;;;;;;;4971005;28;20125;-65
2023/07/12 09:24:32;;;;;;;6.18;3.28;;;;;;;;;;4969024;28;20054;-64
2023/07/12 09:27:13;;;;;;;6.57;3.83;;;;;;;;;;4971185;28;20103;-64
2023/07/12 09:29:38;;;;;;;5.68;4.20;;;;;;;;;;4969350;28;20046;-64
2023/07/12 09:32:28;;;;;;;6.68;3.58;;;;;;;;;;4970401;28;20117;-64
2023/07/12 09:34:54;;;;;;;19.42;9.07;;;;;;;;;;4969525;28;20043;-66
2023/07/12 09:37:24;;;;;;;9.68;6.47;;;;;;;;;;4970040;28;20053;-65
2023/07/12 09:39:59;;;;;;;9.57;5.10;;;;;;;;;;4969719;28;20051;-65
2023/07/12 09:42:28;;;;;;;10.13;4.43;;;;;;;;;;4968896;28;20126;-64
2023/07/12 09:44:54;;;;;;;5.47;3.75;;;;;;;;;;4970749;28;20046;-64
2023/07/12 09:48:27;;;;;;;7.07;3.92;;;;;;;;;;4968768;28;20054;-64
2023/07/12 09:51:07;;;;;;;6.30;4.15;;;;;;;;;;4947840;29;20062;-65
2023/07/12 09:53:40;;;;;;;9.32;4.25;;;;;;;;;;4947937;29;20051;-64
2023/07/12 09:56:25;;;;;;;7.50;4.07;;;;;;;;;;4954545;28;20058;-65
2023/07/12 09:58:59;;;;;;;7.47;3.85;;;;;;;;;;4968785;28;20050;-65
2023/07/12 10:01:46;;;;;;;6.63;3.83;;;;;;;;;;4968474;28;20458;-64
2023/07/12 10:04:39;;;;;;;7.05;3.90;;;;;;;;;;4963118;28;20096;-64
2023/07/12 10:07:19;;;;;;;9.48;3.75;;;;;;;;;;4968983;28;20077;-65
2023/07/12 10:09:48;;;;;;;7.20;3.42;;;;;;;;;;4968644;28;20116;-65
2023/07/12 10:12:34;;;;;;;7.18;3.65;;;;;;;;;;4968199;28;20069;-65
2023/07/12 10:15:00;;;;;;;6.95;3.63;;;;;;;;;;4970051;28;20057;-65
2023/07/12 10:17:39;;;;;;;5.57;4.05;;;;;;;;;;4969150;28;20042;-65
2023/07/12 10:20:06;;;;;;;9.27;4.50;;;;;;;;;;4968587;28;20097;-65
2023/07/12 10:23:01;;;;;;;6.32;3.88;;;;;;;;;;4951425;28;20258;-65
2023/07/12 10:25:35;;;;;;;7.57;4.25;;;;;;;;;;4958700;28;20051;-65
2023/07/12 10:28:22;;;;;;;7.05;3.85;;;;;;;;;;4968428;28;20065;-66
2023/07/12 10:30:50;;;;;;;6.78;4.30;;;;;;;;;;4968891;28;20062;-64
2023/07/12 10:33:37;;;;;;;7.40;4.40;;;;;;;;;;4967801;28;20122;-65
2023/07/12 10:36:15;;;;;;;10.13;4.75;;;;;;;;;;4967598;28;20133;-65
2023/07/12 10:38:40;;;;;;;6.38;4.30;;;;;;;;;;4968197;28;20133;-64
2023/07/12 10:41:15;;;;;;;6.78;4.10;;;;;;;;;;4969144;28;20212;-65
2023/07/12 10:43:48;;;;;;;9.82;3.95;;;;;;;;;;4969164;28;20043;-64
2023/07/12 10:46:38;;;;;;;8.90;4.18;;;;;;;;;;4967613;28;20046;-64
2023/07/12 10:49:13;;;;;;;8.95;4.25;;;;;;;;;;4966946;28;20050;-65
2023/07/12 10:51:44;;;;;;;8.25;4.85;;;;;;;;;;4968061;28;20417;-65
2023/07/12 10:55:11;;;;;;;9.88;4.35;;;;;;;;;;4968559;28;20039;-64
2023/07/12 10:57:50;;;;;;;10.98;5.43;;;;;;;;;;4969110;28;20055;-65
2023/07/12 11:00:30;;;;;;;7.70;4.72;;;;;;;;;;4967699;28;20124;-65
2023/07/12 11:03:10;;;;;;;9.05;3.90;;;;;;;;;;4969271;28;20053;-64
2023/07/12 11:06:25;;;;;;;8.50;5.32;;;;;;;;;;4968939;28;20498;-65
2023/07/12 11:09:10;;;;;;;7.80;4.50;;;;;;;;;;4968511;28;20143;-65
2023/07/12 11:11:44;;;;;;;8.07;4.30;;;;;;;;;;4966747;28;20046;-64
2023/07/12 11:14:38;;;;;;;6.95;4.28;;;;;;;;;;4968711;28;20509;-65
2023/07/12 11:17:07;;;;;;;22.15;4.90;;;;;;;;;;4968197;28;20053;-64
2023/07/12 11:19:34;;;;;;;;;;;;;;;;;;4969165;28;20062;-64
2023/07/12 11:22:21;;;;;;;6.35;3.80;;;;;;;;;;4967415;28;19930;-65
2023/07/12 11:25:21;;;;;;;8.48;4.10;;;;;;;;;;4967627;28;20049;-64
2023/07/12 11:27:59;;;;;;;9.60;4.40;;;;;;;;;;4967257;28;20038;-65
2023/07/12 11:30:27;;;;;;;6.18;3.88;;;;;;;;;;4968681;28;20047;-65
2023/07/12 11:33:10;;;;;;;8.60;4.43;;;;;;;;;;4968913;28;20409;-64
2023/07/12 11:35:44;;;;;;;10.57;4.05;;;;;;;;;;4967539;28;20125;-64
2023/07/12 11:38:20;;;;;;;7.97;4.07;;;;;;;;;;4968489;28;20061;-66
2023/07/12 11:40:51;;;;;;;7.22;3.25;;;;;;;;;;4968925;28;20094;-64
2023/07/12 11:43:22;;;;;;;5.75;3.28;;;;;;;;;;4968201;28;20046;-64
2023/07/12 11:45:49;;;;;;;6.35;3.95;;;;;;;;;;4968964;28;20051;-64
2023/07/12 11:48:15;;;;;;;7.38;4.65;;;;;;;;;;4968323;28;20050;-65
2023/07/12 11:50:40;;;;;;;10.38;2.88;;;;;;;;;;4968893;28;20501;-65
2023/07/12 11:53:06;;;;;;;7.68;4.47;;;;;;;;;;4966874;28;20078;-65
2023/07/12 11:55:34;;;;;;;5.55;3.65;;;;;;;;;;4968712;28;20043;-65
2023/07/12 11:58:00;;;;;;;8.95;4.20;;;;;;;;;;4968648;28;20047;-64
2023/07/12 12:00:29;;;;;;;8.52;3.67;;;;;;;;;;4970623;28;20045;-65
2023/07/12 12:02:58;;;;;;;7.75;4.00;;;;;;;;;;4971330;28;20121;-65
2023/07/12 12:05:34;;;;;;;5.20;3.58;;;;;;;;;;4970936;28;20039;-64
2023/07/12 12:08:02;;;;;;;8.63;4.20;;;;;;;;;;4972477;28;20065;-64
2023/07/12 12:10:33;;;;;;;8.02;3.65;;;;;;;;;;4971091;28;20059;-64
2023/07/12 12:12:59;;;;;;;13.38;4.57;;;;;;;;;;4971459;28;20043;-65
2023/07/12 12:15:30;;;;;;;5.85;3.83;;;;;;;;;;4972062;28;20525;-65
2023/07/12 12:17:57;;;;;;;7.80;4.40;;;;;;;;;;4972451;28;20039;-65
2023/07/12 12:20:28;;;;;;;11.02;4.63;;;;;;;;;;4971923;28;20047;-65
2023/07/12 12:23:11;;;;;;;7.32;3.55;;;;;;;;;;4972385;28;20513;-64
2023/07/12 12:25:49;;;;;;;6.35;4.35;;;;;;;;;;4970713;28;20147;-65
2023/07/12 12:28:32;;;;;;;7.97;4.20;;;;;;;;;;4972057;28;20497;-64
2023/07/12 12:31:21;;;;;;;7.30;4.25;;;;;;;;;;4972134;28;20514;-66
2023/07/12 12:34:16;;;;;;;8.85;4.18;;;;;;;;;;4971883;28;20046;-65
2023/07/12 12:37:08;;;;;;;7.00;3.60;;;;;;;;;;4968114;28;20046;-64
2023/07/12 12:39:34;;;;;;;7.95;3.22;;;;;;;;;;4970368;28;20537;-65
2023/07/12 12:42:18;;;;;;;6.10;3.60;;;;;;;;;;4971926;28;20363;-65
2023/07/12 12:44:44;;;;;;;8.73;3.72;;;;;;;;;;4970335;28;20779;-65
2023/07/12 12:47:20;;;;;;;5.32;2.80;;;;;;;;;;4971492;28;20121;-65
2023/07/12 12:49:47;;;;;;;5.05;3.20;;;;;;;;;;4970582;28;20051;-68
2023/07/12 12:52:27;;;;;;;5.85;3.20;;;;;;;;;;4971403;28;20217;-64
2023/07/12 12:54:57;;;;;;;9.43;3.13;;;;;;;;;;4971938;28;20071;-65
2023/07/12 12:57:22;;;;;;;7.63;3.22;;;;;;;;;;4969767;28;20070;-65
2023/07/12 12:59:48;;;;;;;3.97;2.42;;;;;;;;;;4971660;28;20074;-64
2023/07/12 13:02:19;;;;;;;7.93;2.58;;;;;;;;;;4969666;28;20038;-66
2023/07/12 13:04:45;;;;;;;6.40;3.63;;;;;;;;;;4970048;28;20065;-65
2023/07/12 13:07:29;;;;;;;6.72;3.45;;;;;;;;;;4969288;28;20042;-65
2023/07/12 13:09:54;;;;;;;9.00;3.40;;;;;;;;;;4969848;28;20043;-64
2023/07/12 13:12:23;;;;;;;4.47;3.38;;;;;;;;;;4969938;28;20058;-66
2023/07/12 13:14:49;;;;;;;4.63;3.25;;;;;;;;;;4970883;28;20517;-65
2023/07/12 13:17:21;;;;;;;7.57;3.53;;;;;;;;;;4969226;28;20059;-64
2023/07/12 13:19:49;;;;;;;12.05;3.17;;;;;;;;;;4969813;28;20043;-64
2023/07/12 13:22:19;;;;;;;7.93;3.88;;;;;;;;;;4969220;28;20075;-65
2023/07/12 13:24:44;;;;;;;6.00;3.47;;;;;;;;;;4970779;28;20046;-65
2023/07/12 13:27:16;;;;;;;10.50;3.00;;;;;;;;;;4952670;28;20043;-64
2023/07/12 13:29:42;;;;;;;6.90;2.95;;;;;;;;;;4970798;28;20126;-66
2023/07/12 13:32:15;;;;;;;4.70;3.45;;;;;;;;;;4970519;28;20042;-65
2023/07/12 13:34:41;;;;;;;5.75;3.53;;;;;;;;;;4969380;28;20038;-64
2023/07/12 13:37:13;;;;;;;8.07;4.30;;;;;;;;;;4969055;28;20625;-64
2023/07/12 13:39:39;;;;;;;7.18;3.80;;;;;;;;;;4953958;28;20097;-65
2023/07/12 13:42:08;;;;;;;6.82;3.70;;;;;;;;;;4949052;28;20430;-64
2023/07/12 13:44:34;;;;;;;8.20;3.80;;;;;;;;;;4948979;28;20059;-66
2023/07/12 13:46:59;;;;;;;5.03;2.85;;;;;;;;;;4949356;28;20062;-64
2023/07/12 13:49:25;;;;;;;6.97;3.17;;;;;;;;;;4950474;28;20051;-65
2023/07/12 13:51:50;;;;;;;6.43;3.53;;;;;;;;;;4950838;28;20043;-65
2023/07/12 13:54:16;;;;;;;8.07;3.33;;;;;;;;;;4950035;28;20062;-65
2023/07/12 13:56:44;;;;;;;5.22;3.28;;;;;;;;;;4950959;28;20069;-65
2023/07/12 13:59:09;;;;;;;5.50;3.55;;;;;;;;;;4964929;28;20043;-66
2023/07/12 14:01:35;;;;;;;5.55;3.40;;;;;;;;;;4950884;28;20470;-64
2023/07/12 14:04:01;;;;;;;5.63;3.60;;;;;;;;;;4950567;28;20079;-64
2023/07/12 14:06:27;;;;;;;4.68;3.40;;;;;;;;;;4964945;28;20427;-64
2023/07/12 14:08:53;;;;;;;6.45;3.63;;;;;;;;;;4950228;28;20595;-65
2023/07/12 14:11:31;;;;;;;4.97;3.15;;;;;;;;;;4950056;28;20157;-65
2023/07/12 14:13:57;;;;;;;6.40;3.22;;;;;;;;;;4949071;28;20136;-64
2023/07/12 14:16:25;;;;;;;6.35;3.83;;;;;;;;;;4949690;28;20047;-64
2023/07/12 14:18:51;;;;;;;4.70;3.10;;;;;;;;;;4948679;28;20498;-64
2023/07/12 14:21:23;;;;;;;6.15;2.85;;;;;;;;;;4948448;28;20089;-65
2023/07/12 14:23:49;;;;;;;5.47;3.33;;;;;;;;;;4947938;28;20047;-64
2023/07/12 14:26:23;;;;;;;6.45;2.83;;;;;;;;;;4949657;28;20186;-66
2023/07/12 14:28:50;;;;;;;6.90;3.08;;;;;;;;;;4948783;28;20046;-64
2023/07/12 14:31:21;;;;;;;4.68;2.83;;;;;;;;;;4948109;28;20114;-64
2023/07/12 14:33:52;;;;;;;5.32;2.70;;;;;;;;;;4950328;28;20043;-64
2023/07/12 14:36:22;;;;;;;4.75;3.30;;;;;;;;;;4948069;28;20051;-64
2023/07/12 14:38:48;;;;;;;5.40;3.33;;;;;;;;;;4950220;28;20043;-65
2023/07/12 14:41:28;;;;;;;5.78;3.42;;;;;;;;;;4947822;28;20051;-64
2023/07/12 14:43:59;;;;;;;5.78;2.83;;;;;;;;;;4949719;28;20047;-65
2023/07/12 14:46:25;;;;;;;3.95;2.60;;;;;;;;;;4947591;28;20049;-64
2023/07/12 14:48:50;;;;;;;7.32;2.80;;;;;;;;;;4949775;28;20043;-64
2023/07/12 14:51:17;;;;;;;4.80;2.65;;;;;;;;;;4947871;28;20062;-66
2023/07/12 14:53:43;;;;;;;6.47;2.80;;;;;;;;;;4949821;28;20054;-65
2023/07/12 14:56:10;;;;;;;4.32;2.55;;;;;;;;;;4947520;28;20047;-65
2023/07/12 14:58:37;;;;;;;5.63;2.42;;;;;;;;;;4947970;28;20402;-65